sensor_id;sensor_type;location;lat;lon;timestamp;P1;durP1;ratioP1;P2;durP2;ratioP2
2175;SDS011;1094;49.902;10.876;2022-12-07T00:01:35;24.43;;;22.80;;
2175;SDS011;1094;49.902;10.876;2022-12-07T00:04:03;25.83;;;23.93;;
2175;SDS011;1094;49.902;10.876;2022-12-07T00:06:30;26.20;;;24.30;;
2175;SDS011;1094;49.902;10.876;2022-12-07T00:08:56;26.47;;;24.27;;
2175;SDS011;1094;49.902;10.876;2022-12-07T00:11:23;25.77;;;23.97;;
2175;SDS011;1094;49.902;10.876;2022-12-07T00:13:53;25.30;;;23.50;;
2175;SDS011;1094;49.902;10.876;2022-12-07T00:16:20;25.97;;;23.97;;
2175;SDS011;1094;49.902;10.876;2022-12-07T00:18:47;27.10;;;24.83;;
2175;SDS011;1094;49.902;10.876;2022-12-07T00:21:17;25.80;;;23.83;;
2175;SDS011;1094;49.902;10.876;2022-12-07T00:23:44;26.43;;;24.53;;
2175;SDS011;1094;49.902;10.876;2022-12-07T00:26:12;25.70;;;23.80;;
2175;SDS011;1094;49.902;10.876;2022-12-07T00:28:38;26.90;;;25.10;;
2175;SDS011;1094;49.902;10.876;2022-12-07T00:31:05;25.17;;;23.47;;
2175;SDS011;1094;49.902;10.876;2022-12-07T00:33:32;24.93;;;23.13;;
2175;SDS011;1094;49.902;10.876;2022-12-07T00:35:58;25.50;;;23.80;;
2175;SDS011;1094;49.902;10.876;2022-12-07T00:38:24;26.30;;;24.30;;
2175;SDS011;1094;49.902;10.876;2022-12-07T00:40:56;26.33;;;24.43;;
2175;SDS011;1094;49.902;10.876;2022-12-07T00:43:22;26.27;;;24.40;;
2175;SDS011;1094;49.902;10.876;2022-12-07T00:45:48;25.60;;;23.70;;
2175;SDS011;1094;49.902;10.876;2022-12-07T00:48:14;27.43;;;25.37;;
2175;SDS011;1094;49.902;10.876;2022-12-07T00:50:40;27.17;;;25.27;;
2175;SDS011;1094;49.902;10.876;2022-12-07T00:53:06;26.80;;;24.80;;
2175;SDS011;1094;49.902;10.876;2022-12-07T00:55:32;28.40;;;26.20;;
2175;SDS011;1094;49.902;10.876;2022-12-07T00:57:58;26.73;;;24.73;;
2175;SDS011;1094;49.902;10.876;2022-12-07T01:00:24;26.90;;;24.83;;
2175;SDS011;1094;49.902;10.876;2022-12-07T01:02:50;27.70;;;25.60;;
2175;SDS011;1094;49.902;10.876;2022-12-07T01:05:16;27.80;;;25.40;;
2175;SDS011;1094;49.902;10.876;2022-12-07T01:07:42;26.73;;;24.73;;
2175;SDS011;1094;49.902;10.876;2022-12-07T01:10:08;27.33;;;25.20;;
2175;SDS011;1094;49.902;10.876;2022-12-07T01:12:34;26.23;;;24.30;;
2175;SDS011;1094;49.902;10.876;2022-12-07T01:15:00;27.23;;;25.20;;
2175;SDS011;1094;49.902;10.876;2022-12-07T01:17:27;26.70;;;24.80;;
2175;SDS011;1094;49.902;10.876;2022-12-07T01:19:53;27.43;;;25.00;;
2175;SDS011;1094;49.902;10.876;2022-12-07T01:22:19;26.87;;;24.97;;
2175;SDS011;1094;49.902;10.876;2022-12-07T01:24:45;28.10;;;25.90;;
2175;SDS011;1094;49.902;10.876;2022-12-07T01:27:12;27.50;;;25.30;;
2175;SDS011;1094;49.902;10.876;2022-12-07T01:29:38;27.03;;;25.13;;
2175;SDS011;1094;49.902;10.876;2022-12-07T01:32:04;28.90;;;26.50;;
2175;SDS011;1094;49.902;10.876;2022-12-07T01:34:30;27.70;;;25.40;;
2175;SDS011;1094;49.902;10.876;2022-12-07T01:36:56;27.70;;;25.30;;
2175;SDS011;1094;49.902;10.876;2022-12-07T01:39:22;27.13;;;25.07;;
2175;SDS011;1094;49.902;10.876;2022-12-07T01:41:48;27.10;;;25.00;;
2175;SDS011;1094;49.902;10.876;2022-12-07T01:46:53;26.13;;;24.33;;
2175;SDS011;1094;49.902;10.876;2022-12-07T01:52:04;26.60;;;24.60;;
2175;SDS011;1094;49.902;10.876;2022-12-07T01:54:30;27.50;;;25.07;;
2175;SDS011;1094;49.902;10.876;2022-12-07T01:56:56;27.50;;;25.40;;
2175;SDS011;1094;49.902;10.876;2022-12-07T01:59:23;27.53;;;25.43;;
2175;SDS011;1094;49.902;10.876;2022-12-07T02:01:51;28.17;;;26.00;;
2175;SDS011;1094;49.902;10.876;2022-12-07T02:04:17;26.73;;;24.63;;
2175;SDS011;1094;49.902;10.876;2022-12-07T02:06:43;28.33;;;26.00;;
2175;SDS011;1094;49.902;10.876;2022-12-07T02:09:10;28.50;;;26.30;;
2175;SDS011;1094;49.902;10.876;2022-12-07T02:11:36;28.10;;;25.90;;
2175;SDS011;1094;49.902;10.876;2022-12-07T02:14:02;28.90;;;26.40;;
2175;SDS011;1094;49.902;10.876;2022-12-07T02:16:48;27.80;;;25.60;;
2175;SDS011;1094;49.902;10.876;2022-12-07T02:34:49;28.33;;;25.83;;
2175;SDS011;1094;49.902;10.876;2022-12-07T02:37:23;28.87;;;26.63;;
2175;SDS011;1094;49.902;10.876;2022-12-07T02:42:49;26.87;;;24.80;;
2175;SDS011;1094;49.902;10.876;2022-12-07T02:45:17;28.47;;;26.20;;
2175;SDS011;1094;49.902;10.876;2022-12-07T02:47:46;28.10;;;26.07;;
2175;SDS011;1094;49.902;10.876;2022-12-07T02:50:14;28.20;;;25.90;;
2175;SDS011;1094;49.902;10.876;2022-12-07T02:52:40;31.73;;;28.97;;
2175;SDS011;1094;49.902;10.876;2022-12-07T02:55:06;28.23;;;25.93;;
2175;SDS011;1094;49.902;10.876;2022-12-07T02:57:42;28.83;;;26.80;;
2175;SDS011;1094;49.902;10.876;2022-12-07T03:00:16;28.97;;;26.50;;
2175;SDS011;1094;49.902;10.876;2022-12-07T03:02:57;27.37;;;25.23;;
2175;SDS011;1094;49.902;10.876;2022-12-07T03:08:13;27.07;;;25.03;;
2175;SDS011;1094;49.902;10.876;2022-12-07T03:13:19;29.30;;;26.63;;
2175;SDS011;1094;49.902;10.876;2022-12-07T03:16:02;27.93;;;25.20;;
2175;SDS011;1094;49.902;10.876;2022-12-07T03:18:31;28.83;;;26.33;;
2175;SDS011;1094;49.902;10.876;2022-12-07T03:21:01;30.47;;;27.60;;
2175;SDS011;1094;49.902;10.876;2022-12-07T03:23:28;28.70;;;26.10;;
2175;SDS011;1094;49.902;10.876;2022-12-07T03:25:56;29.27;;;26.37;;
2175;SDS011;1094;49.902;10.876;2022-12-07T03:28:24;27.30;;;25.10;;
2175;SDS011;1094;49.902;10.876;2022-12-07T03:30:55;28.70;;;26.10;;
2175;SDS011;1094;49.902;10.876;2022-12-07T03:33:26;28.47;;;26.20;;
2175;SDS011;1094;49.902;10.876;2022-12-07T03:35:58;29.33;;;27.03;;
2175;SDS011;1094;49.902;10.876;2022-12-07T03:38:29;28.90;;;26.53;;
2175;SDS011;1094;49.902;10.876;2022-12-07T03:41:42;29.40;;;26.73;;
2175;SDS011;1094;49.902;10.876;2022-12-07T03:43:43;29.30;;;27.10;;
2175;SDS011;1094;49.902;10.876;2022-12-07T03:48:36;28.00;;;25.70;;
2175;SDS011;1094;49.902;10.876;2022-12-07T03:51:06;29.13;;;26.50;;
2175;SDS011;1094;49.902;10.876;2022-12-07T03:53:39;29.80;;;27.00;;
2175;SDS011;1094;49.902;10.876;2022-12-07T03:56:06;29.07;;;26.60;;
2175;SDS011;1094;49.902;10.876;2022-12-07T03:58:33;29.03;;;26.43;;
2175;SDS011;1094;49.902;10.876;2022-12-07T04:01:00;28.07;;;25.40;;
2175;SDS011;1094;49.902;10.876;2022-12-07T04:03:26;29.80;;;27.20;;
2175;SDS011;1094;49.902;10.876;2022-12-07T04:05:52;28.33;;;26.13;;
2175;SDS011;1094;49.902;10.876;2022-12-07T04:08:18;28.23;;;25.83;;
2175;SDS011;1094;49.902;10.876;2022-12-07T04:10:44;27.40;;;25.27;;
2175;SDS011;1094;49.902;10.876;2022-12-07T04:13:10;28.80;;;26.33;;
2175;SDS011;1094;49.902;10.876;2022-12-07T04:15:36;29.63;;;26.90;;
2175;SDS011;1094;49.902;10.876;2022-12-07T04:18:02;28.50;;;26.00;;
2175;SDS011;1094;49.902;10.876;2022-12-07T04:20:28;28.93;;;26.53;;
2175;SDS011;1094;49.902;10.876;2022-12-07T04:22:54;30.63;;;27.90;;
2175;SDS011;1094;49.902;10.876;2022-12-07T04:25:20;28.23;;;25.63;;
2175;SDS011;1094;49.902;10.876;2022-12-07T04:27:46;29.83;;;27.23;;
2175;SDS011;1094;49.902;10.876;2022-12-07T04:30:12;30.23;;;27.73;;
2175;SDS011;1094;49.902;10.876;2022-12-07T04:32:38;30.30;;;27.70;;
2175;SDS011;1094;49.902;10.876;2022-12-07T04:35:04;29.47;;;26.77;;
2175;SDS011;1094;49.902;10.876;2022-12-07T04:37:30;29.67;;;27.17;;
2175;SDS011;1094;49.902;10.876;2022-12-07T04:39:56;29.13;;;26.63;;
2175;SDS011;1094;49.902;10.876;2022-12-07T04:42:22;28.13;;;25.40;;
2175;SDS011;1094;49.902;10.876;2022-12-07T04:44:47;29.00;;;26.20;;
2175;SDS011;1094;49.902;10.876;2022-12-07T04:47:13;27.90;;;25.40;;
2175;SDS011;1094;49.902;10.876;2022-12-07T04:49:39;27.97;;;25.60;;
2175;SDS011;1094;49.902;10.876;2022-12-07T04:52:05;30.30;;;27.53;;
2175;SDS011;1094;49.902;10.876;2022-12-07T04:54:31;28.00;;;25.67;;
2175;SDS011;1094;49.902;10.876;2022-12-07T04:56:57;27.93;;;25.53;;
2175;SDS011;1094;49.902;10.876;2022-12-07T04:59:23;29.33;;;26.60;;
2175;SDS011;1094;49.902;10.876;2022-12-07T05:01:49;28.03;;;25.60;;
2175;SDS011;1094;49.902;10.876;2022-12-07T05:04:15;27.30;;;25.07;;
2175;SDS011;1094;49.902;10.876;2022-12-07T05:06:42;28.07;;;25.67;;
2175;SDS011;1094;49.902;10.876;2022-12-07T05:09:08;28.37;;;26.00;;
2175;SDS011;1094;49.902;10.876;2022-12-07T05:11:34;28.73;;;26.43;;
2175;SDS011;1094;49.902;10.876;2022-12-07T05:14:04;28.33;;;25.73;;
2175;SDS011;1094;49.902;10.876;2022-12-07T05:16:30;27.17;;;24.80;;
2175;SDS011;1094;49.902;10.876;2022-12-07T05:18:56;29.40;;;26.90;;
2175;SDS011;1094;49.902;10.876;2022-12-07T05:21:22;29.60;;;27.00;;
2175;SDS011;1094;49.902;10.876;2022-12-07T05:23:48;28.23;;;25.83;;
2175;SDS011;1094;49.902;10.876;2022-12-07T05:26:14;28.73;;;26.13;;
2175;SDS011;1094;49.902;10.876;2022-12-07T05:28:40;29.70;;;26.97;;
2175;SDS011;1094;49.902;10.876;2022-12-07T05:31:06;29.23;;;26.63;;
2175;SDS011;1094;49.902;10.876;2022-12-07T05:33:32;30.10;;;27.30;;
2175;SDS011;1094;49.902;10.876;2022-12-07T05:35:58;29.23;;;26.53;;
2175;SDS011;1094;49.902;10.876;2022-12-07T05:38:30;30.23;;;27.50;;
2175;SDS011;1094;49.902;10.876;2022-12-07T05:40:59;29.37;;;26.87;;
2175;SDS011;1094;49.902;10.876;2022-12-07T05:43:26;29.70;;;26.97;;
2175;SDS011;1094;49.902;10.876;2022-12-07T05:45:52;30.20;;;27.40;;
2175;SDS011;1094;49.902;10.876;2022-12-07T05:48:17;32.17;;;29.07;;
2175;SDS011;1094;49.902;10.876;2022-12-07T05:50:43;29.40;;;26.90;;
2175;SDS011;1094;49.902;10.876;2022-12-07T05:53:09;30.50;;;27.70;;
2175;SDS011;1094;49.902;10.876;2022-12-07T05:55:35;30.60;;;27.80;;
2175;SDS011;1094;49.902;10.876;2022-12-07T05:58:01;30.17;;;27.47;;
2175;SDS011;1094;49.902;10.876;2022-12-07T06:00:46;30.33;;;27.57;;
2175;SDS011;1094;49.902;10.876;2022-12-07T06:03:12;30.27;;;27.60;;
2175;SDS011;1094;49.902;10.876;2022-12-07T06:05:38;29.93;;;27.20;;
2175;SDS011;1094;49.902;10.876;2022-12-07T06:08:04;29.43;;;26.63;;
2175;SDS011;1094;49.902;10.876;2022-12-07T06:10:29;30.77;;;28.13;;
2175;SDS011;1094;49.902;10.876;2022-12-07T06:12:56;30.50;;;27.70;;
2175;SDS011;1094;49.902;10.876;2022-12-07T06:15:22;30.77;;;27.73;;
2175;SDS011;1094;49.902;10.876;2022-12-07T06:17:48;29.47;;;26.53;;
2175;SDS011;1094;49.902;10.876;2022-12-07T06:20:14;31.00;;;28.27;;
2175;SDS011;1094;49.902;10.876;2022-12-07T06:22:40;28.80;;;26.20;;
2175;SDS011;1094;49.902;10.876;2022-12-07T06:25:06;28.80;;;26.20;;
2175;SDS011;1094;49.902;10.876;2022-12-07T06:27:32;32.03;;;28.93;;
2175;SDS011;1094;49.902;10.876;2022-12-07T06:29:58;30.00;;;26.97;;
2175;SDS011;1094;49.902;10.876;2022-12-07T06:32:30;30.53;;;27.53;;
2175;SDS011;1094;49.902;10.876;2022-12-07T06:34:56;28.87;;;26.30;;
2175;SDS011;1094;49.902;10.876;2022-12-07T06:37:22;29.80;;;27.17;;
2175;SDS011;1094;49.902;10.876;2022-12-07T06:39:48;29.20;;;26.40;;
2175;SDS011;1094;49.902;10.876;2022-12-07T06:42:14;31.53;;;28.47;;
2175;SDS011;1094;49.902;10.876;2022-12-07T06:44:40;31.47;;;28.17;;
2175;SDS011;1094;49.902;10.876;2022-12-07T06:47:05;30.77;;;28.07;;
2175;SDS011;1094;49.902;10.876;2022-12-07T06:49:32;30.20;;;27.50;;
2175;SDS011;1094;49.902;10.876;2022-12-07T06:51:59;30.60;;;27.80;;
2175;SDS011;1094;49.902;10.876;2022-12-07T06:54:24;30.00;;;27.20;;
2175;SDS011;1094;49.902;10.876;2022-12-07T06:56:50;29.90;;;27.30;;
2175;SDS011;1094;49.902;10.876;2022-12-07T06:59:16;29.40;;;26.77;;
2175;SDS011;1094;49.902;10.876;2022-12-07T07:01:42;30.67;;;27.83;;
2175;SDS011;1094;49.902;10.876;2022-12-07T07:04:08;30.17;;;27.30;;
2175;SDS011;1094;49.902;10.876;2022-12-07T07:06:34;29.47;;;26.77;;
2175;SDS011;1094;49.902;10.876;2022-12-07T07:09:01;30.90;;;28.10;;
2175;SDS011;1094;49.902;10.876;2022-12-07T07:11:27;30.17;;;27.47;;
2175;SDS011;1094;49.902;10.876;2022-12-07T07:13:53;27.83;;;25.43;;
2175;SDS011;1094;49.902;10.876;2022-12-07T07:16:21;29.20;;;26.53;;
2175;SDS011;1094;49.902;10.876;2022-12-07T07:18:47;30.23;;;27.37;;
2175;SDS011;1094;49.902;10.876;2022-12-07T07:21:13;28.77;;;26.13;;
2175;SDS011;1094;49.902;10.876;2022-12-07T07:26:25;27.47;;;24.97;;
2175;SDS011;1094;49.902;10.876;2022-12-07T07:28:51;25.83;;;23.73;;
2175;SDS011;1094;49.902;10.876;2022-12-07T07:31:17;26.50;;;24.13;;
2175;SDS011;1094;49.902;10.876;2022-12-07T07:33:43;27.17;;;24.70;;
2175;SDS011;1094;49.902;10.876;2022-12-07T07:36:09;26.17;;;23.83;;
2175;SDS011;1094;49.902;10.876;2022-12-07T07:38:34;26.13;;;23.80;;
2175;SDS011;1094;49.902;10.876;2022-12-07T07:41:00;28.30;;;25.67;;
2175;SDS011;1094;49.902;10.876;2022-12-07T07:43:26;28.57;;;26.00;;
2175;SDS011;1094;49.902;10.876;2022-12-07T07:45:52;26.20;;;24.00;;
2175;SDS011;1094;49.902;10.876;2022-12-07T07:48:18;27.30;;;24.60;;
2175;SDS011;1094;49.902;10.876;2022-12-07T07:50:44;26.70;;;24.40;;
2175;SDS011;1094;49.902;10.876;2022-12-07T07:53:10;26.63;;;24.40;;
2175;SDS011;1094;49.902;10.876;2022-12-07T07:55:36;26.80;;;24.33;;
2175;SDS011;1094;49.902;10.876;2022-12-07T07:58:02;27.30;;;25.03;;
2175;SDS011;1094;49.902;10.876;2022-12-07T08:00:28;27.27;;;24.87;;
2175;SDS011;1094;49.902;10.876;2022-12-07T08:02:54;27.33;;;24.83;;
2175;SDS011;1094;49.902;10.876;2022-12-07T08:05:20;28.30;;;25.43;;
2175;SDS011;1094;49.902;10.876;2022-12-07T08:07:46;28.23;;;25.70;;
2175;SDS011;1094;49.902;10.876;2022-12-07T08:10:12;26.93;;;24.67;;
2175;SDS011;1094;49.902;10.876;2022-12-07T08:12:40;26.87;;;24.57;;
2175;SDS011;1094;49.902;10.876;2022-12-07T08:15:26;26.87;;;24.77;;
2175;SDS011;1094;49.902;10.876;2022-12-07T08:17:52;26.33;;;24.03;;
2175;SDS011;1094;49.902;10.876;2022-12-07T08:20:19;25.57;;;23.47;;
2175;SDS011;1094;49.902;10.876;2022-12-07T08:22:45;28.17;;;25.47;;
2175;SDS011;1094;49.902;10.876;2022-12-07T08:25:13;26.90;;;24.57;;
2175;SDS011;1094;49.902;10.876;2022-12-07T08:27:39;26.07;;;23.80;;
2175;SDS011;1094;49.902;10.876;2022-12-07T08:30:05;27.23;;;25.00;;
2175;SDS011;1094;49.902;10.876;2022-12-07T08:32:31;26.17;;;23.87;;
2175;SDS011;1094;49.902;10.876;2022-12-07T08:34:57;27.33;;;24.80;;
2175;SDS011;1094;49.902;10.876;2022-12-07T08:37:23;27.33;;;24.93;;
2175;SDS011;1094;49.902;10.876;2022-12-07T08:39:49;26.97;;;24.77;;
2175;SDS011;1094;49.902;10.876;2022-12-07T08:42:15;26.57;;;24.27;;
2175;SDS011;1094;49.902;10.876;2022-12-07T08:44:41;26.00;;;23.80;;
2175;SDS011;1094;49.902;10.876;2022-12-07T08:47:07;27.27;;;24.80;;
2175;SDS011;1094;49.902;10.876;2022-12-07T08:49:36;27.93;;;25.50;;
2175;SDS011;1094;49.902;10.876;2022-12-07T08:52:03;26.67;;;24.47;;
2175;SDS011;1094;49.902;10.876;2022-12-07T08:54:30;27.37;;;25.07;;
2175;SDS011;1094;49.902;10.876;2022-12-07T08:56:56;28.37;;;25.97;;
2175;SDS011;1094;49.902;10.876;2022-12-07T08:59:22;27.80;;;25.40;;
2175;SDS011;1094;49.902;10.876;2022-12-07T09:01:48;28.30;;;25.73;;
2175;SDS011;1094;49.902;10.876;2022-12-07T09:04:14;27.40;;;25.03;;
2175;SDS011;1094;49.902;10.876;2022-12-07T09:06:41;27.60;;;25.30;;
2175;SDS011;1094;49.902;10.876;2022-12-07T09:09:07;27.70;;;25.20;;
2175;SDS011;1094;49.902;10.876;2022-12-07T09:11:33;28.23;;;25.63;;
2175;SDS011;1094;49.902;10.876;2022-12-07T09:13:59;28.97;;;26.53;;
2175;SDS011;1094;49.902;10.876;2022-12-07T09:16:31;28.90;;;26.20;;
2175;SDS011;1094;49.902;10.876;2022-12-07T09:18:57;27.73;;;25.07;;
2175;SDS011;1094;49.902;10.876;2022-12-07T09:21:24;27.33;;;24.83;;
2175;SDS011;1094;49.902;10.876;2022-12-07T09:23:50;27.90;;;25.50;;
2175;SDS011;1094;49.902;10.876;2022-12-07T09:26:16;28.60;;;26.20;;
2175;SDS011;1094;49.902;10.876;2022-12-07T09:28:42;30.23;;;26.90;;
2175;SDS011;1094;49.902;10.876;2022-12-07T09:31:08;28.50;;;25.80;;
2175;SDS011;1094;49.902;10.876;2022-12-07T09:33:34;28.33;;;25.93;;
2175;SDS011;1094;49.902;10.876;2022-12-07T09:36:00;29.73;;;27.10;;
2175;SDS011;1094;49.902;10.876;2022-12-07T09:38:27;28.93;;;26.33;;
2175;SDS011;1094;49.902;10.876;2022-12-07T09:40:54;29.40;;;26.57;;
2175;SDS011;1094;49.902;10.876;2022-12-07T09:43:21;29.43;;;26.50;;
2175;SDS011;1094;49.902;10.876;2022-12-07T09:45:49;28.70;;;26.23;;
2175;SDS011;1094;49.902;10.876;2022-12-07T09:48:19;27.90;;;25.60;;
2175;SDS011;1094;49.902;10.876;2022-12-07T09:50:46;27.87;;;25.47;;
2175;SDS011;1094;49.902;10.876;2022-12-07T09:53:30;28.70;;;26.20;;
2175;SDS011;1094;49.902;10.876;2022-12-07T09:55:57;29.07;;;26.57;;
2175;SDS011;1094;49.902;10.876;2022-12-07T09:58:25;27.93;;;25.10;;
2175;SDS011;1094;49.902;10.876;2022-12-07T10:00:58;28.60;;;26.20;;
2175;SDS011;1094;49.902;10.876;2022-12-07T10:03:28;28.10;;;25.60;;
2175;SDS011;1094;49.902;10.876;2022-12-07T10:05:54;28.20;;;25.60;;
2175;SDS011;1094;49.902;10.876;2022-12-07T10:08:20;26.97;;;24.70;;
2175;SDS011;1094;49.902;10.876;2022-12-07T10:10:49;28.00;;;25.50;;
2175;SDS011;1094;49.902;10.876;2022-12-07T10:13:19;28.53;;;25.83;;
2175;SDS011;1094;49.902;10.876;2022-12-07T10:20:44;28.87;;;26.20;;
2175;SDS011;1094;49.902;10.876;2022-12-07T10:23:14;28.80;;;26.10;;
2175;SDS011;1094;49.902;10.876;2022-12-07T10:25:40;28.73;;;26.10;;
2175;SDS011;1094;49.902;10.876;2022-12-07T10:30:34;27.90;;;25.60;;
2175;SDS011;1094;49.902;10.876;2022-12-07T10:33:26;28.70;;;25.80;;
2175;SDS011;1094;49.902;10.876;2022-12-07T10:35:53;29.17;;;26.67;;
2175;SDS011;1094;49.902;10.876;2022-12-07T10:38:19;26.47;;;24.13;;
2175;SDS011;1094;49.902;10.876;2022-12-07T10:40:45;27.60;;;25.40;;
2175;SDS011;1094;49.902;10.876;2022-12-07T10:48:28;28.53;;;25.77;;
2175;SDS011;1094;49.902;10.876;2022-12-07T11:01:45;26.93;;;24.83;;
2175;SDS011;1094;49.902;10.876;2022-12-07T11:04:18;27.30;;;25.10;;
2175;SDS011;1094;49.902;10.876;2022-12-07T11:09:47;27.73;;;25.23;;
2175;SDS011;1094;49.902;10.876;2022-12-07T11:12:21;26.90;;;24.90;;
2175;SDS011;1094;49.902;10.876;2022-12-07T11:30:23;24.93;;;22.70;;
2175;SDS011;1094;49.902;10.876;2022-12-07T11:32:57;24.60;;;22.70;;
2175;SDS011;1094;49.902;10.876;2022-12-07T11:37:58;25.17;;;23.00;;
2175;SDS011;1094;49.902;10.876;2022-12-07T11:42:56;23.37;;;21.83;;
2175;SDS011;1094;49.902;10.876;2022-12-07T11:45:25;25.43;;;23.53;;
2175;SDS011;1094;49.902;10.876;2022-12-07T11:50:32;24.63;;;22.83;;
2175;SDS011;1094;49.902;10.876;2022-12-07T11:53:10;23.73;;;22.13;;
2175;SDS011;1094;49.902;10.876;2022-12-07T11:55:50;24.67;;;22.60;;
2175;SDS011;1094;49.902;10.876;2022-12-07T12:01:09;26.13;;;24.00;;
2175;SDS011;1094;49.902;10.876;2022-12-07T12:03:37;25.60;;;23.67;;
2175;SDS011;1094;49.902;10.876;2022-12-07T12:06:05;25.50;;;23.70;;
2175;SDS011;1094;49.902;10.876;2022-12-07T12:08:33;25.07;;;23.07;;
2175;SDS011;1094;49.902;10.876;2022-12-07T12:16:35;25.47;;;23.37;;
2175;SDS011;1094;49.902;10.876;2022-12-07T12:19:19;25.37;;;23.57;;
2175;SDS011;1094;49.902;10.876;2022-12-07T12:21:48;24.80;;;23.10;;
2175;SDS011;1094;49.902;10.876;2022-12-07T12:24:19;25.40;;;23.40;;
2175;SDS011;1094;49.902;10.876;2022-12-07T12:26:52;25.93;;;23.77;;
2175;SDS011;1094;49.902;10.876;2022-12-07T12:29:20;24.57;;;22.67;;
2175;SDS011;1094;49.902;10.876;2022-12-07T12:31:48;27.20;;;24.90;;
2175;SDS011;1094;49.902;10.876;2022-12-07T12:42:44;23.83;;;22.10;;
2175;SDS011;1094;49.902;10.876;2022-12-07T12:45:18;24.33;;;22.53;;
2175;SDS011;1094;49.902;10.876;2022-12-07T12:47:58;24.73;;;22.93;;
2175;SDS011;1094;49.902;10.876;2022-12-07T12:50:28;24.93;;;22.87;;
2175;SDS011;1094;49.902;10.876;2022-12-07T12:52:58;24.73;;;23.03;;
2175;SDS011;1094;49.902;10.876;2022-12-07T12:58:21;24.87;;;23.00;;
2175;SDS011;1094;49.902;10.876;2022-12-07T13:00:49;23.83;;;22.23;;
2175;SDS011;1094;49.902;10.876;2022-12-07T13:03:33;23.13;;;21.50;;
2175;SDS011;1094;49.902;10.876;2022-12-07T13:08:44;24.20;;;22.20;;
2175;SDS011;1094;49.902;10.876;2022-12-07T13:11:17;22.60;;;20.90;;
2175;SDS011;1094;49.902;10.876;2022-12-07T13:13:43;24.53;;;22.77;;
2175;SDS011;1094;49.902;10.876;2022-12-07T13:18:36;23.77;;;21.97;;
2175;SDS011;1094;49.902;10.876;2022-12-07T13:28:46;24.80;;;23.10;;
2175;SDS011;1094;49.902;10.876;2022-12-07T13:33:44;23.70;;;21.60;;
2175;SDS011;1094;49.902;10.876;2022-12-07T13:36:14;23.80;;;22.00;;
2175;SDS011;1094;49.902;10.876;2022-12-07T13:38:48;22.00;;;20.47;;
2175;SDS011;1094;49.902;10.876;2022-12-07T13:41:16;22.50;;;21.00;;
2175;SDS011;1094;49.902;10.876;2022-12-07T13:43:43;23.07;;;21.50;;
2175;SDS011;1094;49.902;10.876;2022-12-07T13:46:09;23.93;;;22.33;;
2175;SDS011;1094;49.902;10.876;2022-12-07T13:48:43;22.67;;;20.97;;
2175;SDS011;1094;49.902;10.876;2022-12-07T13:51:16;23.07;;;21.47;;
2175;SDS011;1094;49.902;10.876;2022-12-07T13:53:49;23.60;;;22.00;;
2175;SDS011;1094;49.902;10.876;2022-12-07T13:56:15;22.83;;;21.43;;
2175;SDS011;1094;49.902;10.876;2022-12-07T13:58:41;22.60;;;21.20;;
2175;SDS011;1094;49.902;10.876;2022-12-07T14:01:07;22.97;;;21.37;;
2175;SDS011;1094;49.902;10.876;2022-12-07T14:03:34;23.23;;;21.53;;
2175;SDS011;1094;49.902;10.876;2022-12-07T14:08:30;23.37;;;21.77;;
2175;SDS011;1094;49.902;10.876;2022-12-07T14:10:56;24.33;;;22.47;;
2175;SDS011;1094;49.902;10.876;2022-12-07T14:13:30;24.00;;;22.30;;
2175;SDS011;1094;49.902;10.876;2022-12-07T14:15:58;23.53;;;21.87;;
2175;SDS011;1094;49.902;10.876;2022-12-07T14:18:37;23.23;;;21.73;;
2175;SDS011;1094;49.902;10.876;2022-12-07T14:23:36;22.33;;;20.80;;
2175;SDS011;1094;49.902;10.876;2022-12-07T14:26:12;22.10;;;20.70;;
2175;SDS011;1094;49.902;10.876;2022-12-07T14:28:39;23.80;;;22.00;;
2175;SDS011;1094;49.902;10.876;2022-12-07T14:31:24;23.83;;;22.00;;
2175;SDS011;1094;49.902;10.876;2022-12-07T14:33:50;23.20;;;21.40;;
2175;SDS011;1094;49.902;10.876;2022-12-07T14:36:16;24.50;;;22.30;;
2175;SDS011;1094;49.902;10.876;2022-12-07T14:38:42;22.00;;;20.60;;
2175;SDS011;1094;49.902;10.876;2022-12-07T14:41:15;24.03;;;22.20;;
2175;SDS011;1094;49.902;10.876;2022-12-07T14:44:02;22.23;;;20.63;;
2175;SDS011;1094;49.902;10.876;2022-12-07T14:46:32;22.40;;;20.80;;
2175;SDS011;1094;49.902;10.876;2022-12-07T14:48:58;23.90;;;22.00;;
2175;SDS011;1094;49.902;10.876;2022-12-07T14:51:33;19.63;;;18.43;;
2175;SDS011;1094;49.902;10.876;2022-12-07T14:54:01;20.57;;;19.37;;
2175;SDS011;1094;49.902;10.876;2022-12-07T14:56:28;19.77;;;18.60;;
2175;SDS011;1094;49.902;10.876;2022-12-07T14:58:54;20.30;;;19.20;;
2175;SDS011;1094;49.902;10.876;2022-12-07T15:01:20;21.23;;;19.93;;
2175;SDS011;1094;49.902;10.876;2022-12-07T15:03:46;21.93;;;20.67;;
2175;SDS011;1094;49.902;10.876;2022-12-07T15:06:13;20.90;;;19.60;;
2175;SDS011;1094;49.902;10.876;2022-12-07T15:08:39;21.60;;;20.13;;
2175;SDS011;1094;49.902;10.876;2022-12-07T15:11:05;21.80;;;20.40;;
2175;SDS011;1094;49.902;10.876;2022-12-07T15:13:31;21.57;;;20.20;;
2175;SDS011;1094;49.902;10.876;2022-12-07T15:16:16;23.13;;;21.53;;
2175;SDS011;1094;49.902;10.876;2022-12-07T15:18:45;23.13;;;21.53;;
2175;SDS011;1094;49.902;10.876;2022-12-07T15:21:14;21.97;;;20.57;;
2175;SDS011;1094;49.902;10.876;2022-12-07T15:23:40;21.90;;;20.40;;
2175;SDS011;1094;49.902;10.876;2022-12-07T15:26:06;22.10;;;20.60;;
2175;SDS011;1094;49.902;10.876;2022-12-07T15:28:33;22.43;;;20.93;;
2175;SDS011;1094;49.902;10.876;2022-12-07T15:30:59;24.47;;;22.47;;
2175;SDS011;1094;49.902;10.876;2022-12-07T15:33:25;22.63;;;20.93;;
2175;SDS011;1094;49.902;10.876;2022-12-07T15:35:51;24.10;;;22.00;;
2175;SDS011;1094;49.902;10.876;2022-12-07T15:38:17;24.87;;;22.60;;
2175;SDS011;1094;49.902;10.876;2022-12-07T15:40:46;23.47;;;21.40;;
2175;SDS011;1094;49.902;10.876;2022-12-07T15:43:12;23.97;;;21.90;;
2175;SDS011;1094;49.902;10.876;2022-12-07T15:45:56;24.43;;;22.13;;
2175;SDS011;1094;49.902;10.876;2022-12-07T15:48:24;24.00;;;22.27;;
2175;SDS011;1094;49.902;10.876;2022-12-07T15:50:50;22.80;;;21.10;;
2175;SDS011;1094;49.902;10.876;2022-12-07T15:53:16;22.97;;;21.27;;
2175;SDS011;1094;49.902;10.876;2022-12-07T15:55:41;23.90;;;22.07;;
2175;SDS011;1094;49.902;10.876;2022-12-07T15:58:07;22.63;;;20.87;;
2175;SDS011;1094;49.902;10.876;2022-12-07T16:00:33;23.47;;;21.67;;
2175;SDS011;1094;49.902;10.876;2022-12-07T16:02:59;23.60;;;21.33;;
2175;SDS011;1094;49.902;10.876;2022-12-07T16:05:25;22.73;;;21.03;;
2175;SDS011;1094;49.902;10.876;2022-12-07T16:07:51;22.73;;;20.90;;
2175;SDS011;1094;49.902;10.876;2022-12-07T16:10:17;25.60;;;23.33;;
2175;SDS011;1094;49.902;10.876;2022-12-07T16:12:43;25.03;;;23.03;;
2175;SDS011;1094;49.902;10.876;2022-12-07T16:15:09;24.53;;;22.60;;
2175;SDS011;1094;49.902;10.876;2022-12-07T16:17:35;23.87;;;21.93;;
2175;SDS011;1094;49.902;10.876;2022-12-07T16:20:01;25.50;;;23.33;;
2175;SDS011;1094;49.902;10.876;2022-12-07T16:22:27;24.67;;;22.93;;
2175;SDS011;1094;49.902;10.876;2022-12-07T16:24:54;24.20;;;22.17;;
2175;SDS011;1094;49.902;10.876;2022-12-07T16:27:20;23.23;;;21.73;;
2175;SDS011;1094;49.902;10.876;2022-12-07T16:29:46;23.30;;;21.63;;
2175;SDS011;1094;49.902;10.876;2022-12-07T16:32:13;24.43;;;22.73;;
2175;SDS011;1094;49.902;10.876;2022-12-07T16:35:06;24.30;;;22.40;;
2175;SDS011;1094;49.902;10.876;2022-12-07T16:37:52;23.57;;;21.70;;
2175;SDS011;1094;49.902;10.876;2022-12-07T16:40:31;23.17;;;21.57;;
2175;SDS011;1094;49.902;10.876;2022-12-07T16:43:19;22.40;;;20.90;;